Stations météo

réclame
Mon MeteoGroup
Lingen, Allemagne (10305): Température de l'air & dewpoint: 17.07.2019 05:00:00 - 23.07.2019 05:00:00 (CEST)Lingen, Allemagne (10305): Température de l'air 5cm & Température de l'air -5cm: 17.07.2019 05:00:00 - 23.07.2019 05:00:00 (CEST)Lingen, Allemagne (10305): Température de l'air -20cm & Température de l'air -100cm: 17.07.2019 05:00:00 - 23.07.2019 05:00:00 (CEST)Lingen, Allemagne (10305): Vitesse du vent & gusts: 17.07.2019 05:00:00 - 23.07.2019 05:00:00 (CEST)Lingen, Allemagne (10305): Direction du vent: 17.07.2019 05:00:00 - 23.07.2019 05:00:00 (CEST)Lingen, Allemagne (10305): reduced air pressure: 17.07.2019 05:00:00 - 23.07.2019 05:00:00 (CEST)Lingen, Allemagne (10305): Ensoleillement: 17.07.2019 05:00:00 - 23.07.2019 05:00:00 (CEST)Lingen, Allemagne (10305): Quantités de précipitations: 17.07.2019 05:00:00 - 23.07.2019 05:00:00 (CEST)
Date & Time tt [°C] td [°C] tt 5cm [°C] tt -5cm [°C] tt -20cm [°C] tt -100cm [°C] ff [km/h] ff [knt] fx [km/h] fx [knt] dd ppp [hPa] sd [min] rr [mm]
23.07.2019 05:00:00 16,6 15,7 15,1 20,0 22,5 19,2 0 0 4 2 N 1022,6 0 0,0
23.07.2019 04:00:00 17,0 16,0 15,5 20,5 22,8 19,2 3 1 5 3 SSW 1022,5 0 0,0
23.07.2019 03:00:00 17,6 16,6 16,0 21,0 23,1 19,2 2 1 5 3 S 1022,5 0 0,0
23.07.2019 02:00:00 18,2 16,9 16,5 21,5 23,4 19,2 3 1 4 2 S 1022,6 0 0,0
23.07.2019 01:00:00 19,1 17,4 17,3 22,2 23,7 19,2 2 1 4 2 S 1022,6 0 0,0
23.07.2019 00:00:00 20,9 17,4 18,4 22,9 24,0 19,2 4 2 8 4 NW 1022,7 0 0,0
22.07.2019 23:00:00 21,8 17,1 19,5 23,8 24,3 19,2 4 2 8 4 NNW 1022,6 0 0,0
22.07.2019 22:00:00 23,9 16,7 21,9 24,9 24,5 19,2 4 2 14 8 WNW 1022,2 24 0,0
22.07.2019 21:00:00 25,9 16,5 24,8 26,1 24,6 19,2 6 4 20 11 W 1021,8 51 0,0
22.07.2019 20:00:00 26,8 16,3 27,1 27,2 24,6 19,2 8 4 24 13 W 1021,6 24 0,0
22.07.2019 19:00:00 28,3 16,3 29,5 28,0 24,5 19,2 9 5 29 16 W 1021,3 52 0,0
22.07.2019 18:00:00 28,4 15,6 30,5 28,9 24,1 19,2 14 8 31 17 WSW 1021,3 58 0,0
22.07.2019 17:00:00 27,9 15,0 31,7 30,1 23,5 19,2 14 7 31 17 W 1021,9 57 0,0
22.07.2019 16:00:00 27,5 14,6 30,8 28,3 22,9 19,2 13 7 37 20 WSW 1021,9 59 0,0
22.07.2019 15:00:00 26,3 14,2 31,2 29,2 22,2 19,2 15 8 31 17 W 1022,1 27 0,0
22.07.2019 14:00:00 24,1 12,6 28,7 27,6 21,5 19,2 15 8 30 16 SW 1022,5 44 0,0
22.07.2019 13:00:00 22,9 12,5 25,5 24,7 21,0 19,2 12 7 27 15 WSW 1022,8 1 0,0
22.07.2019 12:00:00 22,6 12,7 25,9 23,4 20,6 19,2 11 6 24 13 WSW 1022,8 5 0,0
22.07.2019 11:00:00 21,3 12,4 23,2 22,1 20,3 19,2 12 7 19 10 SSW 1022,7 1 0,0
22.07.2019 10:00:00 20,1 12,8 21,3 20,9 20,0 19,2 6 3 16 8 SSW 1022,4 0 0,0
22.07.2019 09:00:00 18,5 12,6 19,5 19,5 19,9 19,2 8 4 15 8 SSW 1022,3 3 0,0
22.07.2019 08:00:00 17,1 12,0 17,4 18,2 19,9 19,2 6 3 11 6 S 1022,3 0 0,0
22.07.2019 07:00:00 15,2 11,6 14,9 17,4 20,1 19,2 4 2 7 4 S 1022,2 0 0,0
22.07.2019 06:00:00 14,0 11,5 13,6 17,1 20,3 19,1 3 2 8 4 S 1022,4 0 0,0
22.07.2019 05:00:00 14,1 11,7 13,6 17,3 20,6 19,1 3 2 6 3 SSW 1022,8 0 0,0
22.07.2019 04:00:00 13,6 11,4 13,0 17,4 20,9 19,1 4 2 5 3 S 1023,1 0 0,0
22.07.2019 03:00:00 13,8 11,7 13,4 17,6 21,2 19,1 3 2 5 3 S 1023,3 0 0,0
22.07.2019 02:00:00 13,8 11,5 12,4 17,9 21,7 19,1 4 2 4 2 S 1023,4 0 0,0
22.07.2019 01:00:00 14,5 11,6 13,3 18,5 22,1 19,1 2 1 4 2 SSW 1023,6 0 0,0
22.07.2019 00:00:00 15,5 11,2 13,9 19,4 22,6 19,1 2 1 4 2 SW 1023,3 0 0,0
21.07.2019 23:00:00 16,9 10,6 15,0 20,4 23,0 19,2 3 1 8 5 NW 1023,0 0 0,0
21.07.2019 22:00:00 18,3 10,7 16,9 21,6 23,4 19,2 5 3 16 9 NW 1022,9 0 0,0
21.07.2019 21:00:00 20,2 10,1 19,6 23,1 23,8 19,2 10 6 20 11 NW 1022,5 43 0,0
21.07.2019 20:00:00 21,8 9,7 21,8 24,7 23,9 19,2 9 5 31 17 WNW 1021,9 60 0,0
21.07.2019 19:00:00 22,5 10,0 23,4 26,0 23,9 19,2 16 9 28 15 NW 1021,7 60 0,0
21.07.2019 18:00:00 23,2 10,8 24,8 27,3 23,6 19,2 14 8 30 16 NW 1021,7 58 0,0
21.07.2019 17:00:00 23,7 10,3 26,7 29,0 23,1 19,2 21 11 32 18 NW 1021,5 47 0,0
21.07.2019 16:00:00 22,9 10,5 25,2 26,7 22,7 19,2 14 7 35 19 WNW 1021,5 33 0,0
21.07.2019 15:00:00 22,9 11,2 25,1 27,5 22,1 19,2 14 8 37 20 WNW 1021,2 32 0,0
21.07.2019 14:00:00 23,7 11,7 26,9 25,8 21,5 19,2 13 7 39 21 WSW 1020,5 34 0,0
21.07.2019 13:00:00 23,1 11,6 25,5 25,4 20,9 19,2 13 7 35 19 W 1020,0 33 0,0
21.07.2019 12:00:00 22,2 11,7 24,8 25,8 20,0 19,2 14 7 34 19 W 1019,5 58 0,0
21.07.2019 11:00:00 21,4 11,0 24,0 23,2 19,5 19,2 12 7 30 16 W 1019,0 60 0,0
21.07.2019 10:00:00 19,8 13,7 18,4 18,3 19,4 19,2 11 6 26 14 WSW 1018,3 45 0,0
21.07.2019 09:00:00 18,4 15,2 18,1 17,9 19,4 19,2 10 6 24 13 WSW 1017,8 47 0,0
21.07.2019 08:00:00 17,0 14,8 15,8 16,9 19,5 19,2 9 5 16 8 WSW 1017,1 24 0,0
21.07.2019 07:00:00 15,7 14,4 14,6 16,6 19,7 19,2 6 3 10 6 SW 1016,2 3 0,0
21.07.2019 06:00:00 15,3 14,0 14,3 16,2 19,9 19,2 6 3 10 5 SW 1015,6 0 0,0
21.07.2019 05:00:00 15,7 14,0 14,1 16,5 20,2 19,2 5 3 12 6 SW 1015,0 0 0,0
21.07.2019 04:00:00 16,4 14,2 14,8 16,9 20,6 19,2 7 4 15 8 SW 1014,4 0 0,0
21.07.2019 03:00:00 16,9 14,4 15,0 17,3 20,9 19,2 9 5 20 11 SW 1014,0 0 0,0
21.07.2019 02:00:00 17,0 14,4 15,1 17,8 21,3 19,1 7 4 16 9 SW 1013,8 0 0,0
21.07.2019 01:00:00 17,2 15,2 15,6 18,4 21,7 19,1 6 4 14 7 SW 1013,6 0 0,0
21.07.2019 00:00:00 17,6 16,4 16,3 19,0 22,1 19,1 8 4 15 8 SSW 1013,1 0 0,0
20.07.2019 23:00:00 18,0 16,6 16,9 19,7 22,5 19,1 8 4 16 9 SSW 1012,6 0 0,0
20.07.2019 22:00:00 19,0 16,9 17,7 20,8 22,8 19,1 8 4 16 9 S 1011,9 0 0,0
20.07.2019 21:00:00 19,3 17,0 18,5 22,1 23,0 19,1 8 5 18 10 SSE 1011,3 1 0,0
20.07.2019 20:00:00 19,6 17,3 18,8 22,6 23,2 19,1 6 4 21 12 SSE 1010,5 22 0,0
20.07.2019 19:00:00 21,1 17,1 20,5 24,0 23,3 19,1 11 6 22 12 S 1010,2 43 0,5
20.07.2019 18:00:00 18,0 16,6 18,0 23,1 23,5 19,1 13 7 22 12 SSE 1011,1 0 1,2
20.07.2019 17:00:00 20,4 17,1 20,4 25,3 23,5 19,1 5 3 12 7 SSE 1010,9 6 0,8
20.07.2019 16:00:00 20,4 14,2 19,4 25,7 23,4 19,0 9 5 19 11 WNW 1011,0 14 0,0
20.07.2019 15:00:00 20,0 17,0 20,7 24,4 23,4 19,0 3 2 35 19 WSW 1011,2 5 0,7
20.07.2019 14:00:00 19,8 14,2 17,9 25,3 23,4 19,0 18 10 49 26 W 1012,1 0 0,9
20.07.2019 13:00:00 25,5 14,0 27,5 27,7 22,8 19,0 15 8 37 20 SW 1010,4 7 0,0
20.07.2019 12:00:00 26,4 13,9 30,5 27,4 22,1 19,0 20 11 40 22 SW 1009,8 34 0,0
20.07.2019 11:00:00 26,1 15,1 31,7 24,7 21,6 19,0 14 7 27 15 S 1009,9 31 0,0
20.07.2019 10:00:00 23,2 14,5 25,1 21,4 21,5 18,9 13 7 32 17 SSE 1010,2 55 0,0
20.07.2019 09:00:00 20,7 13,3 20,8 20,5 21,6 18,9 16 9 28 15 SSE 1010,6 60 0,0
20.07.2019 08:00:00 18,2 12,7 17,9 19,8 21,7 18,9 9 5 19 10 SSE 1010,9 22 0,0
20.07.2019 07:00:00 17,3 12,1 17,0 19,7 21,9 18,9 12 6 22 12 SSE 1011,2 3 0,0
20.07.2019 06:00:00 17,1 11,8 16,0 19,8 22,2 18,8 9 5 19 10 SSE 1011,4 0 0,0
20.07.2019 05:00:00 17,2 11,9 16,1 20,2 22,5 18,8 8 5 14 8 SSE 1011,8 0 0,0
20.07.2019 04:00:00 17,7 11,9 16,9 20,6 22,8 18,8 6 3 15 8 SSE 1012,2 0 0,0
20.07.2019 03:00:00 18,0 11,7 17,1 20,8 23,1 18,8 10 5 18 10 SSE 1012,3 0 0,0
20.07.2019 02:00:00 18,2 11,3 16,8 21,3 23,4 18,8 7 4 11 6 SSE 1012,7 0 0,0
20.07.2019 01:00:00 18,6 11,2 16,7 22,1 23,8 18,7 7 4 11 6 SSE 1013,3 0 0,0
20.07.2019 00:00:00 19,1 12,2 18,2 22,7 24,2 18,7 4 2 6 3 SE 1013,3 0 0,0
19.07.2019 23:00:00 19,9 10,5 18,0 23,6 24,5 18,7 3 2 6 3 SSE 1013,2 0 0,0
19.07.2019 22:00:00 21,6 10,2 20,6 24,6 24,8 18,7 4 2 7 4 SSW 1013,6 0 0,0
19.07.2019 21:00:00 22,9 9,1 21,6 25,6 25,1 18,7 4 2 16 9 WSW 1013,4 5 0,0
19.07.2019 20:00:00 24,9 9,2 24,7 27,1 25,2 18,7 9 5 21 11 WSW 1013,0 55 0,0
19.07.2019 19:00:00 24,6 11,5 24,7 28,2 25,2 18,7 10 6 19 11 SSW 1013,0 37 0,0
19.07.2019 18:00:00 25,6 12,0 26,6 29,0 25,1 18,6 5 3 22 12 NW 1013,2 18 0,0
19.07.2019 17:00:00 24,7 10,2 27,0 31,0 24,7 18,6 7 4 23 12 SSW 1013,4 38 0,0
19.07.2019 16:00:00 25,8 10,9 29,8 29,9 24,3 18,6 6 4 19 10 W 1013,6 38 0,0
19.07.2019 15:00:00 24,2 10,8 28,0 30,7 23,6 18,6 11 6 24 13 SW 1013,7 34 0,0
19.07.2019 14:00:00 24,5 10,6 29,0 29,6 23,0 18,6 7 4 20 11 W 1013,6 32 0,0
19.07.2019 13:00:00 24,3 12,4 29,7 28,5 22,4 18,6 8 4 16 9 NNW 1013,6 28 0,0
19.07.2019 12:00:00 22,4 12,1 28,2 27,2 21,7 18,5 9 5 17 9 WNW 1013,8 40 0,0
19.07.2019 11:00:00 20,7 12,6 23,8 24,9 21,3 18,5 6 4 15 8 NW 1013,8 46 0,0
19.07.2019 10:00:00 19,8 12,8 20,8 21,7 21,2 18,5 6 4 16 9 W 1013,7 31 0,0
19.07.2019 09:00:00 18,5 13,8 19,4 21,1 21,2 18,5 8 4 15 8 WNW 1013,5 14 0,0
19.07.2019 08:00:00 18,1 14,7 18,9 20,5 21,2 18,5 8 4 13 7 W 1013,1 4 0,0
19.07.2019 07:00:00 17,7 15,3 18,1 20,0 21,4 18,4 7 4 16 8 W 1012,7 0 0,0
19.07.2019 06:00:00 17,4 15,3 17,0 20,0 21,6 18,4 6 3 14 8 W 1012,5 0 0,0
19.07.2019 05:00:00 17,6 15,4 17,4 20,2 21,8 18,4 5 3 13 7 W 1012,3 0 0,0
19.07.2019 04:00:00 17,8 15,0 17,2 20,5 22,0 18,4 8 5 23 12 W 1012,2 0 0,0
19.07.2019 03:00:00 18,3 15,0 18,2 20,7 22,2 18,4 8 5 18 10 WSW 1011,8 0 0,0
19.07.2019 02:00:00 18,2 14,6 17,7 21,0 22,5 18,4 6 3 20 11 SSW 1011,8 0 0,0
19.07.2019 01:00:00 18,9 14,4 17,5 21,6 22,8 18,3 8 4 19 10 SW 1011,7 0 0,0
19.07.2019 00:00:00 20,2 13,0 19,8 22,3 23,1 18,3 10 5 18 10 SW 1011,5 0 0,0
18.07.2019 23:00:00 20,4 12,7 19,8 22,8 23,4 18,3 5 3 10 5 SW 1011,4 0 0,0
18.07.2019 22:00:00 21,1 11,5 20,5 23,6 23,7 18,3 5 3 17 9 WSW 1011,1 0 0,0
18.07.2019 21:00:00 22,1 11,7 22,0 24,8 23,9 18,3 14 7 26 14 WSW 1010,7 0 0,0
18.07.2019 20:00:00 23,9 10,4 24,2 26,2 24,1 18,3 10 5 25 13 W 1010,2 6 0,0
18.07.2019 19:00:00 25,5 10,0 26,7 27,3 24,1 18,3 11 6 26 14 W 1009,8 18 0,0
18.07.2019 18:00:00 25,2 9,7 27,1 28,1 24,0 18,3 15 8 28 15 SSW 1009,8 2 0,0
18.07.2019 17:00:00 25,5 9,6 27,4 29,3 23,7 18,3 13 7 32 17 SW 1009,8 8 0,0
18.07.2019 16:00:00 25,8 10,6 29,5 30,1 23,3 18,3 14 8 28 15 S 1010,0 32 0,0
18.07.2019 15:00:00 26,4 10,7 32,4 31,5 22,4 18,3 16 9 31 17 S 1010,2 54 0,0
18.07.2019 14:00:00 25,5 9,9 32,1 30,7 21,4 18,3 14 8 33 18 S 1010,6 56 0,0
18.07.2019 13:00:00 24,1 11,2 30,2 28,9 20,4 18,3 16 8 27 15 SSE 1011,1 56 0,0
18.07.2019 12:00:00 23,6 13,1 29,2 25,7 19,6 18,2 11 6 25 14 S 1011,4 55 0,0
18.07.2019 11:00:00 21,6 13,3 25,0 22,6 19,1 18,2 10 5 24 13 S 1011,7 56 0,0
18.07.2019 10:00:00 19,3 12,2 19,3 18,7 18,9 18,2 10 6 20 11 S 1012,0 60 0,0
18.07.2019 09:00:00 17,4 12,9 17,2 17,9 18,9 18,2 9 5 16 8 S 1012,1 57 0,0
18.07.2019 08:00:00 15,7 12,0 15,4 17,2 19,0 18,2 6 4 12 7 S 1012,1 28 0,0
18.07.2019 07:00:00 14,3 12,2 13,5 16,6 19,2 18,2 6 3 9 5 SSE 1012,3 0 0,0
18.07.2019 06:00:00 13,5 12,0 12,6 16,5 19,4 18,2 3 2 9 5 SSE 1012,5 0 0,0
18.07.2019 05:00:00 13,1 11,8 11,5 16,5 19,7 18,1 7 4 11 6 SSE 1012,9 0 0,0
18.07.2019 04:00:00 13,3 11,8 11,4 16,9 20,0 18,1 4 2 8 4 SSE 1012,9 0 0,0
18.07.2019 03:00:00 13,7 12,1 11,7 17,4 20,4 18,1 4 2 8 4 SSE 1013,4 0 0,0
18.07.2019 02:00:00 14,0 12,3 12,2 18,0 20,7 18,1 1 1 4 2 ESE 1013,7 0 0,0
18.07.2019 01:00:00 14,8 12,4 12,9 18,6 21,1 18,1 2 1 11 6 S 1013,8 0 0,0
18.07.2019 00:00:00 15,5 12,6 13,7 19,4 21,5 18,1 0 0 3 2 N 1013,6 0 0,0
17.07.2019 23:00:00 16,9 12,3 14,7 20,3 21,8 18,1 0 0 5 3 N 1013,8 0 0,0
17.07.2019 22:00:00 18,6 12,1 16,1 21,5 22,1 18,1 4 2 10 6 SSE 1013,9 19 0,0
17.07.2019 21:00:00 21,1 11,7 18,9 22,9 22,3 18,1 5 3 13 7 SE 1013,7 58 0,0
17.07.2019 20:00:00 23,9 12,2 22,4 24,3 22,3 18,2 4 2 12 6 ENE 1013,8 60 0,0
17.07.2019 19:00:00 23,7 11,1 24,2 25,0 22,3 18,2 8 4 16 9 ENE 1014,0 60 0,0
17.07.2019 18:00:00 24,4 11,7 25,7 25,8 22,1 18,2 6 3 19 10 E 1014,4 32 0,0
17.07.2019 17:00:00 21,6 11,4 24,3 26,0 21,9 18,2 7 4 14 7 N 1015,0 2 0,0
17.07.2019 16:00:00 21,8 11,0 25,7 27,2 21,5 18,2 8 4 14 8 NNW 1015,3 1 0,0
17.07.2019 15:00:00 21,4 11,1 26,1 27,6 20,9 18,2 9 5 17 9 NNW 1015,4 8 0,0
17.07.2019 14:00:00 20,8 11,4 26,4 27,3 20,2 18,2 10 5 22 12 NW 1015,8 15 0,0
17.07.2019 13:00:00 21,5 11,9 29,1 27,2 19,2 18,2 8 5 18 10 N 1016,1 60 0,0
17.07.2019 12:00:00 20,1 9,5 26,4 24,3 18,4 18,2 5 3 15 8 N 1016,1 50 0,0
17.07.2019 11:00:00 18,6 10,0 24,7 20,9 18,0 18,2 7 4 16 9 N 1016,3 46 0,0
17.07.2019 10:00:00 16,6 11,3 16,9 17,4 17,9 18,2 7 4 14 8 N 1016,5 55 0,0
17.07.2019 09:00:00 15,2 10,8 15,9 17,8 17,9 18,2 8 5 10 6 NNW 1016,7 6 0,0
17.07.2019 08:00:00 15,0 12,3 15,9 17,1 17,9 18,2 6 3 9 5 NNW 1016,6 0 0,0
17.07.2019 07:00:00 14,4 12,3 14,8 16,7 17,9 18,2 6 3 9 5 NNW 1016,6 0 0,0
17.07.2019 06:00:00 14,5 12,2 14,5 16,7 18,0 18,2 5 3 8 5 N 1016,9 0 0,0
17.07.2019 05:00:00 14,8 11,7 14,7 16,8 18,1 18,2 4 2 7 4 NW 1016,9 0 0,0

tt = Température de l'air
td = dewpoint
tt 5cm = Température de l'air 5cm
tt -5cm = Température de l'air -5cm
tt -20cm = Température de l'air -20cm
tt -100cm = Température de l'air -100cm
ff = Vitesse du vent
fx = gusts
dd = Direction du vent
ppp = reduced air pressure
sd = Ensoleillement
rr = Quantités de précipitations

stations d'obs. à proximité